createdAt,value
2022-11-22T00:01:27.420Z,2.83
2022-11-22T00:03:53.930Z,2.40
2022-11-22T00:06:20.464Z,2.33
2022-11-22T00:08:46.897Z,3.13
2022-11-22T00:11:13.438Z,2.30
2022-11-22T00:13:39.960Z,2.40
2022-11-22T00:16:06.470Z,2.70
2022-11-22T00:18:33.002Z,2.57
2022-11-22T00:21:05.088Z,2.43
2022-11-22T00:23:31.556Z,2.90
2022-11-22T00:25:58.083Z,2.77
2022-11-22T00:28:24.654Z,3.43
2022-11-22T00:30:51.114Z,2.83
2022-11-22T00:33:17.668Z,2.90
2022-11-22T00:35:46.323Z,2.30
2022-11-22T00:38:12.970Z,3.47
2022-11-22T00:40:39.678Z,3.87
2022-11-22T00:43:06.139Z,2.80
2022-11-22T00:45:32.602Z,2.83
2022-11-22T00:47:59.071Z,2.57
2022-11-22T00:50:25.569Z,2.43
2022-11-22T00:52:52.109Z,2.47
2022-11-22T00:55:18.578Z,2.23
2022-11-22T00:57:45.099Z,2.77
2022-11-22T01:00:12.083Z,2.90
2022-11-22T01:02:38.775Z,2.97
2022-11-22T01:05:05.661Z,3.30
2022-11-22T01:07:32.249Z,3.43
2022-11-22T01:09:58.770Z,2.80
2022-11-22T01:12:25.480Z,2.93
2022-11-22T01:14:52.020Z,2.90
2022-11-22T01:17:18.634Z,3.10
2022-11-22T01:19:45.800Z,2.97
2022-11-22T01:22:12.341Z,2.37
2022-11-22T01:24:39.162Z,2.70
2022-11-22T01:27:06.026Z,3.20
2022-11-22T01:29:32.682Z,2.57
2022-11-22T01:31:59.401Z,2.60
2022-11-22T01:34:27.425Z,2.87
2022-11-22T01:36:53.923Z,2.70
2022-11-22T01:39:20.504Z,2.43
2022-11-22T01:41:47.059Z,2.93
2022-11-22T01:44:27.105Z,2.70
2022-11-22T01:47:24.028Z,2.53
2022-11-22T01:50:03.546Z,2.83
2022-11-22T01:52:32.687Z,2.53
2022-11-22T01:55:04.977Z,2.80
2022-11-22T01:57:33.727Z,2.67
2022-11-22T02:00:08.085Z,2.67
2022-11-22T02:02:35.295Z,2.37
2022-11-22T02:05:10.123Z,2.13
2022-11-22T02:07:50.130Z,2.57
2022-11-22T02:10:18.957Z,2.63
2022-11-22T02:12:45.575Z,2.77
2022-11-22T02:15:12.557Z,2.63
2022-11-22T02:17:39.096Z,2.77
2022-11-22T02:20:07.145Z,2.80
2022-11-22T02:22:36.630Z,2.37
2022-11-22T02:25:30.228Z,2.73
2022-11-22T02:27:56.883Z,2.67
2022-11-22T02:30:23.734Z,2.53
2022-11-22T02:32:50.408Z,1.70
2022-11-22T02:35:19.538Z,2.03
2022-11-22T02:37:46.737Z,4.33
2022-11-22T02:40:15.195Z,3.20
2022-11-22T02:42:47.027Z,2.40
2022-11-22T02:45:13.554Z,3.13
2022-11-22T02:47:40.213Z,2.97
2022-11-22T02:50:07.117Z,2.87
2022-11-22T02:52:33.602Z,2.50
2022-11-22T02:55:00.128Z,2.10
2022-11-22T02:57:26.689Z,2.10
2022-11-22T02:59:53.298Z,2.03
2022-11-22T03:02:19.747Z,2.40
2022-11-22T03:04:46.526Z,2.03
2022-11-22T03:07:13.072Z,2.57
2022-11-22T03:09:39.577Z,2.90
2022-11-22T03:12:06.264Z,1.90
2022-11-22T03:14:32.741Z,2.17
2022-11-22T03:16:59.286Z,2.67
2022-11-22T03:19:25.858Z,2.40
2022-11-22T03:21:52.380Z,2.37
2022-11-22T03:24:20.255Z,2.00
2022-11-22T03:26:48.532Z,2.50
2022-11-22T03:29:15.634Z,2.60
2022-11-22T03:31:42.133Z,2.70
2022-11-22T03:34:09.092Z,3.10
2022-11-22T03:36:35.691Z,2.50
2022-11-22T03:39:02.201Z,2.40
2022-11-22T03:41:28.744Z,2.93
2022-11-22T03:43:55.312Z,2.27
2022-11-22T03:46:21.754Z,2.47
2022-11-22T03:48:48.344Z,2.67
2022-11-22T03:51:14.868Z,2.30
2022-11-22T03:53:41.605Z,2.63
2022-11-22T03:56:08.217Z,2.43
2022-11-22T03:58:34.784Z,2.80
2022-11-22T04:01:01.942Z,2.37
2022-11-22T04:03:28.588Z,2.77
2022-11-22T04:05:55.106Z,2.97
2022-11-22T04:08:21.739Z,2.77
2022-11-22T04:10:49.480Z,2.43
2022-11-22T04:13:16.290Z,2.73
2022-11-22T04:15:42.801Z,3.17
2022-11-22T04:18:10.811Z,3.00
2022-11-22T04:20:56.290Z,3.97
2022-11-22T04:23:25.411Z,2.50
2022-11-22T04:25:55.490Z,2.70
2022-11-22T04:29:08.125Z,3.10
2022-11-22T04:31:30.938Z,3.20
2022-11-22T04:33:57.439Z,2.67
2022-11-22T04:36:23.929Z,2.00
2022-11-22T04:38:50.361Z,2.27
2022-11-22T04:41:16.928Z,2.93
2022-11-22T04:44:01.986Z,3.17
2022-11-22T04:46:28.482Z,2.70
2022-11-22T04:48:54.914Z,2.20
2022-11-22T04:51:39.983Z,2.40
2022-11-22T04:54:06.468Z,3.10
2022-11-22T04:56:33.020Z,3.07
2022-11-22T04:58:59.572Z,2.70
2022-11-22T05:01:26.103Z,2.60
2022-11-22T05:03:52.708Z,3.60
2022-11-22T05:06:19.226Z,6.73
2022-11-22T05:08:45.724Z,4.03
2022-11-22T05:11:12.260Z,3.80
2022-11-22T05:13:40.747Z,2.70
2022-11-22T05:16:10.698Z,3.10
2022-11-22T05:18:37.444Z,2.57
2022-11-22T05:21:12.213Z,2.63
2022-11-22T05:23:57.020Z,2.50
2022-11-22T05:26:32.009Z,2.60
2022-11-22T05:28:59.352Z,3.33
2022-11-22T05:31:27.579Z,3.33
2022-11-22T05:33:56.120Z,3.47
2022-11-22T05:36:23.804Z,4.10
2022-11-22T05:38:50.489Z,4.27
2022-11-22T05:41:17.328Z,3.33
2022-11-22T05:43:44.383Z,4.20
2022-11-22T05:46:30.485Z,4.50
2022-11-22T05:48:58.279Z,3.67
2022-11-22T05:51:32.494Z,3.00
2022-11-22T05:54:00.886Z,3.37
2022-11-22T05:56:27.358Z,4.53
2022-11-22T05:58:53.924Z,3.77
2022-11-22T06:01:23.183Z,4.33
2022-11-22T06:03:50.495Z,4.67
2022-11-22T06:06:17.501Z,3.87
2022-11-22T06:08:46.907Z,3.30
2022-11-22T06:11:22.417Z,4.20
2022-11-22T06:13:50.950Z,5.10
2022-11-22T06:16:17.664Z,4.23
2022-11-22T06:18:44.382Z,3.43
2022-11-22T06:21:16.247Z,3.83
2022-11-22T06:23:43.010Z,3.80
2022-11-22T06:26:12.517Z,4.17
2022-11-22T06:28:39.745Z,4.40
2022-11-22T06:31:14.419Z,3.80
2022-11-22T06:33:41.874Z,3.43
2022-11-22T06:36:13.425Z,3.23
2022-11-22T06:38:41.187Z,4.30
2022-11-22T06:41:16.642Z,4.07
2022-11-22T06:43:48.581Z,4.87
2022-11-22T06:46:19.857Z,4.83
2022-11-22T06:48:46.962Z,4.70
2022-11-22T06:51:19.000Z,5.57
2022-11-22T06:53:48.617Z,4.27
2022-11-22T06:56:36.193Z,4.30
2022-11-22T06:59:04.699Z,4.47
2022-11-22T07:01:32.640Z,5.10
2022-11-22T07:04:00.200Z,4.17
2022-11-22T07:06:28.951Z,5.10
2022-11-22T07:08:55.591Z,4.80
2022-11-22T07:11:24.378Z,4.33
2022-11-22T07:13:51.116Z,4.50
2022-11-22T07:16:19.874Z,4.43
2022-11-22T07:18:46.890Z,3.50
2022-11-22T07:21:15.482Z,3.90
2022-11-22T07:23:43.433Z,4.83
2022-11-22T07:26:10.899Z,5.10
2022-11-22T07:28:38.035Z,4.63
2022-11-22T07:31:06.805Z,5.43
2022-11-22T07:33:33.545Z,7.70
2022-11-22T07:36:08.214Z,5.40
2022-11-22T07:38:34.937Z,4.73
2022-11-22T07:41:01.929Z,7.40
2022-11-22T07:43:28.871Z,7.03
2022-11-22T07:46:03.076Z,6.10
2022-11-22T07:48:29.714Z,5.30
2022-11-22T07:50:56.259Z,5.90
2022-11-22T07:53:23.314Z,4.93
2022-11-22T07:55:49.883Z,5.40
2022-11-22T07:58:16.357Z,5.67
2022-11-22T08:00:42.808Z,6.50
2022-11-22T08:03:09.351Z,5.27
2022-11-22T08:05:35.851Z,4.30
2022-11-22T08:08:02.307Z,5.93
2022-11-22T08:10:28.934Z,7.87
2022-11-22T08:12:58.910Z,5.47
2022-11-22T08:15:25.626Z,6.47
2022-11-22T08:17:52.215Z,6.00
2022-11-22T08:20:18.838Z,5.67
2022-11-22T08:22:45.384Z,5.93
2022-11-22T08:25:14.923Z,5.07
2022-11-22T08:27:42.799Z,5.30
2022-11-22T08:30:12.352Z,4.60
2022-11-22T08:32:38.915Z,4.90
2022-11-22T08:35:05.868Z,5.67
2022-11-22T08:37:32.319Z,5.43
2022-11-22T08:39:58.790Z,4.70
2022-11-22T08:42:25.206Z,4.90
2022-11-22T08:44:51.742Z,6.80
2022-11-22T08:47:18.325Z,5.40
2022-11-22T08:49:44.851Z,6.57
2022-11-22T08:52:11.370Z,7.50
2022-11-22T08:54:38.345Z,6.87
2022-11-22T08:57:05.135Z,6.50
2022-11-22T08:59:32.051Z,6.43
2022-11-22T09:01:58.919Z,5.97
2022-11-22T09:04:25.520Z,6.80
2022-11-22T09:09:38.726Z,5.50
2022-11-22T09:12:05.571Z,5.30
2022-11-22T09:14:32.106Z,4.30
2022-11-22T09:16:58.655Z,5.13
2022-11-22T09:19:25.701Z,6.00
2022-11-22T09:21:52.227Z,5.10
2022-11-22T09:24:18.781Z,5.90
2022-11-22T09:26:45.331Z,4.53
2022-11-22T09:29:11.921Z,4.80
2022-11-22T09:31:38.708Z,5.33
2022-11-22T09:34:05.154Z,5.60
2022-11-22T09:36:31.806Z,6.73
2022-11-22T09:38:58.379Z,6.80
2022-11-22T09:41:49.599Z,6.23
2022-11-22T09:44:33.752Z,5.93
2022-11-22T09:47:11.083Z,6.57
2022-11-22T09:49:52.962Z,5.53
2022-11-22T09:52:32.058Z,6.53
2022-11-22T09:55:10.070Z,6.43
2022-11-22T09:57:46.087Z,6.57
2022-11-22T10:00:25.919Z,5.77
2022-11-22T10:03:01.062Z,5.73
2022-11-22T10:05:34.821Z,91.40
2022-11-22T10:08:29.868Z,95.23
2022-11-22T10:10:58.539Z,71.90
2022-11-22T10:13:43.846Z,14.60
2022-11-22T10:16:18.532Z,8.60
2022-11-22T10:19:27.750Z,9.03
2022-11-22T10:21:54.354Z,19.50
2022-11-22T10:24:20.878Z,13.47
2022-11-22T10:26:47.892Z,28.43
2022-11-22T10:29:41.008Z,15.67
2022-11-22T10:32:19.276Z,9.33
2022-11-22T10:34:57.511Z,5.80
2022-11-22T10:38:14.878Z,5.33
2022-11-22T10:40:52.181Z,6.13
2022-11-22T10:43:26.439Z,4.90
2022-11-22T10:46:24.225Z,5.30
2022-11-22T10:49:32.352Z,5.33
2022-11-22T10:52:06.716Z,5.07
2022-11-22T10:54:59.196Z,5.50
2022-11-22T10:57:25.702Z,5.53
2022-11-22T11:00:17.569Z,5.53
2022-11-22T11:02:47.019Z,5.10
2022-11-22T11:05:16.620Z,5.13
2022-11-22T11:07:47.851Z,5.57
2022-11-22T11:10:29.198Z,5.50
2022-11-22T11:13:03.375Z,4.90
2022-11-22T11:15:43.200Z,4.10
2022-11-22T11:18:17.225Z,4.70
2022-11-22T11:20:43.972Z,4.20
2022-11-22T11:23:15.466Z,4.90
2022-11-22T11:25:47.491Z,4.80
2022-11-22T11:28:24.943Z,4.93
2022-11-22T11:30:56.945Z,5.00
2022-11-22T11:33:32.194Z,6.07
2022-11-22T11:36:13.671Z,6.83
2022-11-22T11:38:43.400Z,6.70
2022-11-22T11:41:24.067Z,6.10
2022-11-22T11:43:55.532Z,6.07
2022-11-22T11:46:25.116Z,6.30
2022-11-22T11:48:56.275Z,5.20
2022-11-22T11:51:36.535Z,4.83
2022-11-22T11:54:10.007Z,3.90
2022-11-22T11:56:47.010Z,4.50
2022-11-22T11:59:16.189Z,4.33
2022-11-22T12:01:49.261Z,4.33
2022-11-22T12:04:31.513Z,3.83
2022-11-22T12:07:03.637Z,4.20
2022-11-22T12:09:36.223Z,4.00
2022-11-22T12:12:09.478Z,3.60
2022-11-22T12:15:09.139Z,2.67
2022-11-22T12:17:27.759Z,3.33
2022-11-22T12:20:02.167Z,3.67
2022-11-22T12:22:50.284Z,4.00
2022-11-22T12:25:38.034Z,3.90
2022-11-22T12:28:24.833Z,3.30
2022-11-22T12:31:15.490Z,3.33
2022-11-22T12:33:44.331Z,3.00
2022-11-22T12:36:32.461Z,2.90
2022-11-22T12:39:02.067Z,2.67
2022-11-22T12:41:28.898Z,2.50
2022-11-22T12:43:58.714Z,2.60
2022-11-22T12:46:40.880Z,3.97
2022-11-22T12:49:25.736Z,5.47
2022-11-22T12:52:04.190Z,4.80
2022-11-22T12:54:39.952Z,5.80
2022-11-22T12:57:13.352Z,5.47
2022-11-22T13:00:09.259Z,4.70
2022-11-22T13:03:02.122Z,4.47
2022-11-22T13:05:40.989Z,5.20
2022-11-22T13:08:21.488Z,4.37
2022-11-22T13:10:58.431Z,4.23
2022-11-22T13:13:28.551Z,4.37
2022-11-22T13:15:56.919Z,5.53
2022-11-22T13:18:28.501Z,4.37
2022-11-22T13:21:14.616Z,5.53
2022-11-22T13:24:12.680Z,4.67
2022-11-22T13:26:45.664Z,6.30
2022-11-22T13:29:24.233Z,6.20
2022-11-22T13:32:12.181Z,6.10
2022-11-22T13:34:59.166Z,6.97
2022-11-22T13:37:26.480Z,5.90
2022-11-22T13:39:53.214Z,6.23
2022-11-22T13:42:24.058Z,6.00
2022-11-22T13:44:56.761Z,6.67
2022-11-22T13:47:23.216Z,8.37
2022-11-22T13:49:53.956Z,6.60
2022-11-22T13:52:20.971Z,9.60
2022-11-22T13:54:47.458Z,7.33
2022-11-22T13:57:27.595Z,8.10
2022-11-22T14:00:18.673Z,6.60
2022-11-22T14:02:49.430Z,6.03
2022-11-22T14:05:23.181Z,5.57
2022-11-22T14:07:51.325Z,7.23
2022-11-22T14:10:32.321Z,6.03
2022-11-22T14:13:32.085Z,6.00
2022-11-22T14:16:19.553Z,5.50
2022-11-22T14:18:53.664Z,8.50
2022-11-22T14:21:39.033Z,11.67
2022-11-22T14:24:20.792Z,11.40
2022-11-22T14:26:53.304Z,9.40
2022-11-22T14:29:35.296Z,6.20
2022-11-22T14:32:14.281Z,5.10
2022-11-22T14:35:05.659Z,5.60
2022-11-22T14:37:32.466Z,5.30
2022-11-22T14:40:02.015Z,5.90
2022-11-22T14:42:37.248Z,7.00
2022-11-22T14:45:12.598Z,7.20
2022-11-22T14:47:52.362Z,8.10
2022-11-22T14:50:39.306Z,8.00
2022-11-22T14:53:34.989Z,7.03
2022-11-22T14:56:17.621Z,7.67
2022-11-22T14:59:26.015Z,7.87
2022-11-22T15:02:05.615Z,8.23
2022-11-22T15:09:18.821Z,7.27
2022-11-22T15:09:26.419Z,6.40
2022-11-22T15:11:23.582Z,7.47
2022-11-22T15:14:20.794Z,7.60
2022-11-22T15:59:40.691Z,9.20
2022-11-22T16:02:14.654Z,10.00
2022-11-22T16:06:07.121Z,7.80
2022-11-22T16:07:54.962Z,7.00
2022-11-22T16:10:33.188Z,7.97
2022-11-22T16:13:11.291Z,9.00
2022-11-22T16:15:38.039Z,12.53
2022-11-22T16:18:10.459Z,13.90
2022-11-22T16:20:38.526Z,11.63
2022-11-22T16:23:11.941Z,13.93
2022-11-22T16:25:39.542Z,11.90
2022-11-22T16:28:28.358Z,9.50
2022-11-22T16:30:59.854Z,10.40
2022-11-22T16:33:26.521Z,11.20
2022-11-22T16:35:54.973Z,11.30
2022-11-22T16:38:21.843Z,12.30
2022-11-22T16:40:48.549Z,10.10
2022-11-22T16:43:23.258Z,10.40
2022-11-22T16:45:50.442Z,8.47
2022-11-22T16:48:37.901Z,10.40
2022-11-22T16:51:06.493Z,9.87
2022-11-22T16:53:49.561Z,9.87
2022-11-22T16:56:21.476Z,10.37
2022-11-22T16:58:48.959Z,11.27
2022-11-22T17:01:17.461Z,8.83
2022-11-22T17:03:45.562Z,8.00
2022-11-22T17:06:21.484Z,9.23
2022-11-22T17:08:52.990Z,8.33
2022-11-22T17:11:21.931Z,8.03
2022-11-22T17:13:48.773Z,7.93
2022-11-22T17:16:17.915Z,9.30
2022-11-22T17:18:44.846Z,8.90
2022-11-22T17:21:37.476Z,8.17
2022-11-22T17:24:06.627Z,9.70
2022-11-22T17:26:34.966Z,9.10
2022-11-22T17:29:01.556Z,9.53
2022-11-22T17:31:29.075Z,9.17
2022-11-22T17:33:57.881Z,8.13
2022-11-22T17:36:24.312Z,7.50
2022-11-22T17:38:50.838Z,6.23
2022-11-22T17:41:17.348Z,6.87
2022-11-22T17:43:44.038Z,6.97
2022-11-22T17:46:10.590Z,8.07
2022-11-22T17:48:37.209Z,9.40
2022-11-22T17:51:07.772Z,13.23
2022-11-22T17:53:34.993Z,13.83
2022-11-22T17:56:10.557Z,10.70
2022-11-22T17:58:38.678Z,9.70
2022-11-22T18:01:16.217Z,10.50
2022-11-22T18:03:43.161Z,12.80
2022-11-22T18:06:10.794Z,15.87
2022-11-22T18:08:38.270Z,13.60
2022-11-22T18:11:07.543Z,9.80
2022-11-22T18:13:36.876Z,8.13
2022-11-22T18:16:06.674Z,8.13
2022-11-22T18:21:21.189Z,7.87
2022-11-22T18:23:47.844Z,7.60
2022-11-22T18:26:38.126Z,7.27
2022-11-22T18:34:35.093Z,11.47
2022-11-22T18:37:03.566Z,11.07
2022-11-22T18:39:36.885Z,9.90
2022-11-22T18:42:23.500Z,14.13
2022-11-22T18:44:50.078Z,13.80
2022-11-22T18:47:17.203Z,13.60
2022-11-22T18:49:43.671Z,14.83
2022-11-22T18:52:13.380Z,11.77
2022-11-22T18:54:43.047Z,12.70
2022-11-22T18:57:09.710Z,13.13
2022-11-22T18:59:36.313Z,9.80
2022-11-22T19:02:02.800Z,10.90
2022-11-22T19:04:30.043Z,10.80
2022-11-22T19:06:56.740Z,14.57
2022-11-22T19:09:23.268Z,14.93
2022-11-22T19:11:51.847Z,11.70
2022-11-22T19:14:19.921Z,13.40
2022-11-22T19:16:46.443Z,12.17
2022-11-22T19:19:13.251Z,11.80
2022-11-22T19:21:39.732Z,9.73
2022-11-22T19:24:06.323Z,11.73
2022-11-22T19:26:32.819Z,11.50
2022-11-22T19:28:59.895Z,11.10
2022-11-22T19:31:28.776Z,11.37
2022-11-22T19:33:55.459Z,11.50
2022-11-22T19:36:27.900Z,10.40
2022-11-22T19:38:59.136Z,10.77
2022-11-22T19:41:26.030Z,9.73
2022-11-22T19:43:52.763Z,11.00
2022-11-22T19:46:20.115Z,8.13
2022-11-22T19:48:53.698Z,8.60
2022-11-22T19:51:21.098Z,8.10
2022-11-22T19:53:47.884Z,8.87
2022-11-22T19:56:16.314Z,9.17
2022-11-22T19:58:44.252Z,8.00
2022-11-22T20:01:12.831Z,8.60
2022-11-22T20:03:41.236Z,7.17
2022-11-22T20:06:09.703Z,9.40
2022-11-22T20:08:37.393Z,8.10
2022-11-22T20:11:10.065Z,6.57
2022-11-22T20:13:41.732Z,7.00
2022-11-22T20:16:10.877Z,7.00
2022-11-22T20:18:37.795Z,7.37
2022-11-22T20:21:05.361Z,6.90
2022-11-22T20:23:32.525Z,7.47
2022-11-22T20:26:11.510Z,8.10
2022-11-22T20:28:39.023Z,8.10
2022-11-22T20:31:07.736Z,6.90
2022-11-22T20:33:39.348Z,7.80
2022-11-22T20:36:10.605Z,7.70
2022-11-22T20:38:38.335Z,7.63
2022-11-22T20:41:06.385Z,6.67
2022-11-22T20:43:34.670Z,7.97
2022-11-22T20:46:11.380Z,6.83
2022-11-22T20:48:39.403Z,6.27
2022-11-22T20:51:08.533Z,6.47
2022-11-22T20:53:35.467Z,6.80
2022-11-22T20:56:02.374Z,7.37
2022-11-22T20:58:29.291Z,6.17
2022-11-22T21:00:56.607Z,5.77
2022-11-22T21:03:23.795Z,5.90
2022-11-22T21:05:52.182Z,7.10
2022-11-22T21:08:19.157Z,6.87
2022-11-22T21:10:45.690Z,6.23
2022-11-22T21:13:12.724Z,6.47
2022-11-22T21:15:39.383Z,6.90
2022-11-22T21:20:52.474Z,6.33
2022-11-22T21:23:19.238Z,6.10
2022-11-22T21:25:46.122Z,5.87
2022-11-22T21:28:12.588Z,6.27
2022-11-22T21:30:39.112Z,6.27
2022-11-22T21:33:05.725Z,7.50
2022-11-22T21:35:32.158Z,7.50
2022-11-22T21:37:58.628Z,7.37
2022-11-22T21:40:25.523Z,7.13
2022-11-22T21:42:51.970Z,7.60
2022-11-22T21:45:18.432Z,7.83
2022-11-22T21:47:47.402Z,8.40
2022-11-22T21:50:15.360Z,8.07
2022-11-22T21:52:42.481Z,7.50
2022-11-22T21:55:09.759Z,7.13
2022-11-22T21:57:36.357Z,7.77
2022-11-22T22:00:04.768Z,9.00
2022-11-22T22:02:32.763Z,7.53
2022-11-22T22:04:59.423Z,7.57
2022-11-22T22:07:50.699Z,7.07
2022-11-22T22:10:13.748Z,7.50
2022-11-22T22:12:41.041Z,7.80
2022-11-22T22:15:10.050Z,7.53
2022-11-22T22:17:36.528Z,7.47
2022-11-22T22:20:03.226Z,7.17
2022-11-22T22:22:29.783Z,6.30
2022-11-22T22:24:56.286Z,7.03
2022-11-22T22:27:22.813Z,7.03
2022-11-22T22:29:49.421Z,6.93
2022-11-22T22:32:15.916Z,6.70
2022-11-22T22:34:42.480Z,7.03
2022-11-22T22:37:09.081Z,7.60
2022-11-22T22:39:35.555Z,7.80
2022-11-22T22:42:02.257Z,7.57
2022-11-22T22:44:29.532Z,7.73
2022-11-22T22:46:55.974Z,6.13
2022-11-22T22:49:22.507Z,6.13
2022-11-22T22:51:51.411Z,5.87
2022-11-22T22:54:17.940Z,6.10
2022-11-22T22:56:45.092Z,5.40
2022-11-22T22:59:11.519Z,5.80
2022-11-22T23:01:38.133Z,7.20
2022-11-22T23:04:05.074Z,6.80
2022-11-22T23:06:34.550Z,7.23
2022-11-22T23:09:02.117Z,7.90
2022-11-22T23:11:48.811Z,5.70
2022-11-22T23:14:18.599Z,6.17
2022-11-22T23:16:45.453Z,6.00
2022-11-22T23:19:12.108Z,5.70
2022-11-22T23:21:38.748Z,8.10
2022-11-22T23:24:05.890Z,8.20
2022-11-22T23:26:32.802Z,7.10
2022-11-22T23:28:59.724Z,8.77
2022-11-22T23:31:26.982Z,8.10
2022-11-22T23:33:53.749Z,6.60
2022-11-22T23:36:21.459Z,6.50
2022-11-22T23:38:48.043Z,8.10
2022-11-22T23:41:21.990Z,6.90
2022-11-22T23:43:53.272Z,7.13
2022-11-22T23:46:20.047Z,5.70
2022-11-22T23:48:48.048Z,6.57
2022-11-22T23:51:15.179Z,6.20
2022-11-22T23:53:41.984Z,6.70
2022-11-22T23:56:21.621Z,6.33
2022-11-22T23:58:48.593Z,5.63
